sensor_id;sensor_type;location;lat;lon;timestamp;temperature;humidity
34279;DHT22;20538;51.528;9.942;2023-10-19T00:00:35;8.20;99.90
34279;DHT22;20538;51.528;9.942;2023-10-19T00:03:02;8.30;99.90
34279;DHT22;20538;51.528;9.942;2023-10-19T00:05:29;8.30;99.90
34279;DHT22;20538;51.528;9.942;2023-10-19T00:07:56;8.30;99.90
34279;DHT22;20538;51.528;9.942;2023-10-19T00:10:23;8.10;99.90
34279;DHT22;20538;51.528;9.942;2023-10-19T00:12:51;8.20;99.90
34279;DHT22;20538;51.528;9.942;2023-10-19T00:15:26;8.20;99.90
34279;DHT22;20538;51.528;9.942;2023-10-19T00:17:56;8.10;99.90
34279;DHT22;20538;51.528;9.942;2023-10-19T00:20:24;8.10;99.90
34279;DHT22;20538;51.528;9.942;2023-10-19T00:23:16;8.00;99.90
34279;DHT22;20538;51.528;9.942;2023-10-19T00:25:50;8.10;99.90
34279;DHT22;20538;51.528;9.942;2023-10-19T00:28:20;8.10;99.90
34279;DHT22;20538;51.528;9.942;2023-10-19T00:30:47;8.00;99.90
34279;DHT22;20538;51.528;9.942;2023-10-19T00:33:15;7.90;99.90
34279;DHT22;20538;51.528;9.942;2023-10-19T00:35:46;7.90;99.90
34279;DHT22;20538;51.528;9.942;2023-10-19T00:38:44;8.00;99.90
34279;DHT22;20538;51.528;9.942;2023-10-19T00:41:18;7.90;99.90
34279;DHT22;20538;51.528;9.942;2023-10-19T00:43:49;8.00;99.90
34279;DHT22;20538;51.528;9.942;2023-10-19T00:46:17;8.00;99.90
34279;DHT22;20538;51.528;9.942;2023-10-19T00:51:21;7.90;99.90
34279;DHT22;20538;51.528;9.942;2023-10-19T00:54:00;7.90;99.90
34279;DHT22;20538;51.528;9.942;2023-10-19T00:56:33;7.90;99.90
34279;DHT22;20538;51.528;9.942;2023-10-19T00:59:00;7.90;99.90
34279;DHT22;20538;51.528;9.942;2023-10-19T01:01:38;7.90;99.90
34279;DHT22;20538;51.528;9.942;2023-10-19T01:04:10;7.90;99.90
34279;DHT22;20538;51.528;9.942;2023-10-19T01:06:43;7.90;99.90
34279;DHT22;20538;51.528;9.942;2023-10-19T01:09:13;7.90;99.90
34279;DHT22;20538;51.528;9.942;2023-10-19T01:11:42;7.90;99.90
34279;DHT22;20538;51.528;9.942;2023-10-19T01:14:20;7.90;99.90
34279;DHT22;20538;51.528;9.942;2023-10-19T01:16:53;7.90;99.90
34279;DHT22;20538;51.528;9.942;2023-10-19T01:19:22;7.80;99.90
34279;DHT22;20538;51.528;9.942;2023-10-19T01:21:49;7.80;99.90
34279;DHT22;20538;51.528;9.942;2023-10-19T01:24:19;7.80;99.90
34279;DHT22;20538;51.528;9.942;2023-10-19T01:26:51;7.80;99.90
34279;DHT22;20538;51.528;9.942;2023-10-19T01:29:19;7.80;99.90
34279;DHT22;20538;51.528;9.942;2023-10-19T01:31:52;7.90;99.90
34279;DHT22;20538;51.528;9.942;2023-10-19T01:34:22;7.80;99.90
34279;DHT22;20538;51.528;9.942;2023-10-19T01:36:48;7.80;99.90
34279;DHT22;20538;51.528;9.942;2023-10-19T01:39:16;7.80;99.90
34279;DHT22;20538;51.528;9.942;2023-10-19T01:41:44;7.90;99.90
34279;DHT22;20538;51.528;9.942;2023-10-19T01:44:10;7.90;99.90
34279;DHT22;20538;51.528;9.942;2023-10-19T01:46:41;7.90;99.90
34279;DHT22;20538;51.528;9.942;2023-10-19T01:49:09;7.90;99.90
34279;DHT22;20538;51.528;9.942;2023-10-19T01:51:36;7.90;99.90
34279;DHT22;20538;51.528;9.942;2023-10-19T01:54:08;7.80;99.90
34279;DHT22;20538;51.528;9.942;2023-10-19T01:56:34;7.70;99.90
34279;DHT22;20538;51.528;9.942;2023-10-19T01:59:04;7.80;99.90
34279;DHT22;20538;51.528;9.942;2023-10-19T02:01:30;7.90;99.90
34279;DHT22;20538;51.528;9.942;2023-10-19T02:04:03;7.90;99.90
34279;DHT22;20538;51.528;9.942;2023-10-19T02:06:32;7.80;99.90
34279;DHT22;20538;51.528;9.942;2023-10-19T02:09:13;7.80;99.90
34279;DHT22;20538;51.528;9.942;2023-10-19T02:11:41;7.80;99.90
34279;DHT22;20538;51.528;9.942;2023-10-19T02:14:08;7.80;99.90
34279;DHT22;20538;51.528;9.942;2023-10-19T02:16:40;7.80;99.90
34279;DHT22;20538;51.528;9.942;2023-10-19T02:19:06;7.80;99.90
34279;DHT22;20538;51.528;9.942;2023-10-19T02:21:32;7.80;99.90
34279;DHT22;20538;51.528;9.942;2023-10-19T02:24:00;7.80;99.90
34279;DHT22;20538;51.528;9.942;2023-10-19T02:26:25;7.80;99.90
34279;DHT22;20538;51.528;9.942;2023-10-19T02:28:52;7.80;99.90
34279;DHT22;20538;51.528;9.942;2023-10-19T02:31:19;7.70;99.90
34279;DHT22;20538;51.528;9.942;2023-10-19T02:33:47;7.80;99.90
34279;DHT22;20538;51.528;9.942;2023-10-19T02:36:32;7.80;99.90
34279;DHT22;20538;51.528;9.942;2023-10-19T02:39:01;7.80;99.90
34279;DHT22;20538;51.528;9.942;2023-10-19T02:44:01;7.90;99.90
34279;DHT22;20538;51.528;9.942;2023-10-19T02:46:31;7.90;99.90
34279;DHT22;20538;51.528;9.942;2023-10-19T02:49:04;7.90;99.90
34279;DHT22;20538;51.528;9.942;2023-10-19T02:51:33;7.90;99.90
34279;DHT22;20538;51.528;9.942;2023-10-19T02:53:58;7.90;99.90
34279;DHT22;20538;51.528;9.942;2023-10-19T02:56:28;8.00;99.90
34279;DHT22;20538;51.528;9.942;2023-10-19T02:58:55;8.00;99.90
34279;DHT22;20538;51.528;9.942;2023-10-19T03:01:29;8.00;99.90
34279;DHT22;20538;51.528;9.942;2023-10-19T03:03:58;8.00;99.90
34279;DHT22;20538;51.528;9.942;2023-10-19T03:06:28;8.00;99.90
34279;DHT22;20538;51.528;9.942;2023-10-19T03:09:04;8.00;99.90
34279;DHT22;20538;51.528;9.942;2023-10-19T03:11:56;8.00;99.90
34279;DHT22;20538;51.528;9.942;2023-10-19T03:14:35;8.00;99.90
34279;DHT22;20538;51.528;9.942;2023-10-19T03:17:02;8.10;99.90
34279;DHT22;20538;51.528;9.942;2023-10-19T03:19:29;8.10;99.90
34279;DHT22;20538;51.528;9.942;2023-10-19T03:21:55;8.10;99.90
34279;DHT22;20538;51.528;9.942;2023-10-19T03:24:21;8.10;99.90
34279;DHT22;20538;51.528;9.942;2023-10-19T03:27:05;8.10;99.90
34279;DHT22;20538;51.528;9.942;2023-10-19T03:29:45;8.10;99.90
34279;DHT22;20538;51.528;9.942;2023-10-19T03:32:12;8.10;99.90
34279;DHT22;20538;51.528;9.942;2023-10-19T03:34:38;8.10;99.90
34279;DHT22;20538;51.528;9.942;2023-10-19T03:37:04;8.10;99.90
34279;DHT22;20538;51.528;9.942;2023-10-19T03:39:37;8.10;99.90
34279;DHT22;20538;51.528;9.942;2023-10-19T03:42:04;8.10;99.90
34279;DHT22;20538;51.528;9.942;2023-10-19T03:44:33;8.10;99.90
34279;DHT22;20538;51.528;9.942;2023-10-19T03:47:15;8.20;99.90
34279;DHT22;20538;51.528;9.942;2023-10-19T03:49:45;8.20;99.90
34279;DHT22;20538;51.528;9.942;2023-10-19T03:52:12;8.20;99.90
34279;DHT22;20538;51.528;9.942;2023-10-19T03:54:38;8.30;99.90
34279;DHT22;20538;51.528;9.942;2023-10-19T03:57:11;8.30;99.90
34279;DHT22;20538;51.528;9.942;2023-10-19T03:59:41;8.30;99.90
34279;DHT22;20538;51.528;9.942;2023-10-19T04:02:07;8.30;99.90
34279;DHT22;20538;51.528;9.942;2023-10-19T04:04:39;8.40;99.90
34279;DHT22;20538;51.528;9.942;2023-10-19T04:07:09;8.40;99.90
34279;DHT22;20538;51.528;9.942;2023-10-19T04:09:48;8.40;99.90
34279;DHT22;20538;51.528;9.942;2023-10-19T04:12:28;8.40;99.90
34279;DHT22;20538;51.528;9.942;2023-10-19T04:14:57;8.40;99.90
34279;DHT22;20538;51.528;9.942;2023-10-19T04:17:23;8.40;99.90
34279;DHT22;20538;51.528;9.942;2023-10-19T04:19:50;8.50;99.90
34279;DHT22;20538;51.528;9.942;2023-10-19T04:22:17;8.50;99.90
34279;DHT22;20538;51.528;9.942;2023-10-19T04:24:52;8.50;99.90
34279;DHT22;20538;51.528;9.942;2023-10-19T04:27:18;8.50;99.90
34279;DHT22;20538;51.528;9.942;2023-10-19T04:29:48;8.50;99.90
34279;DHT22;20538;51.528;9.942;2023-10-19T04:32:15;8.50;99.90
34279;DHT22;20538;51.528;9.942;2023-10-19T04:34:45;8.60;99.90
34279;DHT22;20538;51.528;9.942;2023-10-19T04:37:10;8.60;99.90
34279;DHT22;20538;51.528;9.942;2023-10-19T04:39:38;8.70;99.90
34279;DHT22;20538;51.528;9.942;2023-10-19T04:42:03;8.70;99.90
34279;DHT22;20538;51.528;9.942;2023-10-19T04:44:29;8.80;99.90
34279;DHT22;20538;51.528;9.942;2023-10-19T04:46:56;8.70;99.90
34279;DHT22;20538;51.528;9.942;2023-10-19T04:49:22;8.70;99.90
34279;DHT22;20538;51.528;9.942;2023-10-19T04:51:48;8.80;99.90
34279;DHT22;20538;51.528;9.942;2023-10-19T04:54:13;8.80;99.90
34279;DHT22;20538;51.528;9.942;2023-10-19T04:56:39;8.80;99.90
34279;DHT22;20538;51.528;9.942;2023-10-19T04:59:05;8.80;99.90
34279;DHT22;20538;51.528;9.942;2023-10-19T05:01:31;8.80;99.90
34279;DHT22;20538;51.528;9.942;2023-10-19T05:03:59;8.90;99.90
34279;DHT22;20538;51.528;9.942;2023-10-19T05:06:25;8.90;99.90
34279;DHT22;20538;51.528;9.942;2023-10-19T05:08:50;8.90;99.90
34279;DHT22;20538;51.528;9.942;2023-10-19T05:11:17;8.90;99.90
34279;DHT22;20538;51.528;9.942;2023-10-19T05:13:43;8.90;99.90
34279;DHT22;20538;51.528;9.942;2023-10-19T05:16:08;8.90;99.90
34279;DHT22;20538;51.528;9.942;2023-10-19T05:18:34;8.90;99.90
34279;DHT22;20538;51.528;9.942;2023-10-19T05:21:00;8.90;99.90
34279;DHT22;20538;51.528;9.942;2023-10-19T05:23:27;8.90;99.90
34279;DHT22;20538;51.528;9.942;2023-10-19T05:26:00;9.00;99.90
34279;DHT22;20538;51.528;9.942;2023-10-19T05:28:26;9.00;99.90
34279;DHT22;20538;51.528;9.942;2023-10-19T05:30:52;9.00;99.90
34279;DHT22;20538;51.528;9.942;2023-10-19T05:33:18;9.00;99.90
34279;DHT22;20538;51.528;9.942;2023-10-19T05:35:50;9.00;99.90
34279;DHT22;20538;51.528;9.942;2023-10-19T05:38:19;9.00;99.90
34279;DHT22;20538;51.528;9.942;2023-10-19T05:41:05;9.00;99.90
34279;DHT22;20538;51.528;9.942;2023-10-19T05:43:48;9.10;99.90
34279;DHT22;20538;51.528;9.942;2023-10-19T05:46:14;9.10;99.90
34279;DHT22;20538;51.528;9.942;2023-10-19T05:48:44;9.00;99.90
34279;DHT22;20538;51.528;9.942;2023-10-19T05:51:10;9.10;99.90
34279;DHT22;20538;51.528;9.942;2023-10-19T05:53:36;9.10;99.90
34279;DHT22;20538;51.528;9.942;2023-10-19T05:56:03;9.10;99.90
34279;DHT22;20538;51.528;9.942;2023-10-19T05:58:28;9.10;99.90
34279;DHT22;20538;51.528;9.942;2023-10-19T06:00:58;9.20;99.90
34279;DHT22;20538;51.528;9.942;2023-10-19T06:03:24;9.10;99.90
34279;DHT22;20538;51.528;9.942;2023-10-19T06:05:49;9.20;99.90
34279;DHT22;20538;51.528;9.942;2023-10-19T06:08:15;9.20;99.90
34279;DHT22;20538;51.528;9.942;2023-10-19T06:10:41;9.20;99.90
34279;DHT22;20538;51.528;9.942;2023-10-19T06:13:08;9.20;99.90
34279;DHT22;20538;51.528;9.942;2023-10-19T06:15:36;9.30;99.90
34279;DHT22;20538;51.528;9.942;2023-10-19T06:18:02;9.30;99.90
34279;DHT22;20538;51.528;9.942;2023-10-19T06:20:29;9.30;99.90
34279;DHT22;20538;51.528;9.942;2023-10-19T06:22:56;9.40;99.90
34279;DHT22;20538;51.528;9.942;2023-10-19T06:25:23;9.40;99.90
34279;DHT22;20538;51.528;9.942;2023-10-19T06:27:50;9.40;99.90
34279;DHT22;20538;51.528;9.942;2023-10-19T06:30:18;9.50;99.90
34279;DHT22;20538;51.528;9.942;2023-10-19T06:32:52;9.50;99.90
34279;DHT22;20538;51.528;9.942;2023-10-19T06:35:22;9.50;99.90
34279;DHT22;20538;51.528;9.942;2023-10-19T06:37:49;9.60;99.90
34279;DHT22;20538;51.528;9.942;2023-10-19T06:40:16;9.70;99.90
34279;DHT22;20538;51.528;9.942;2023-10-19T06:42:45;9.70;99.90
34279;DHT22;20538;51.528;9.942;2023-10-19T06:45:12;9.70;99.90
34279;DHT22;20538;51.528;9.942;2023-10-19T06:47:42;9.70;99.90
34279;DHT22;20538;51.528;9.942;2023-10-19T06:50:09;9.80;99.90
34279;DHT22;20538;51.528;9.942;2023-10-19T06:52:39;9.80;99.90
34279;DHT22;20538;51.528;9.942;2023-10-19T06:55:06;9.80;99.90
34279;DHT22;20538;51.528;9.942;2023-10-19T06:57:46;9.90;99.90
34279;DHT22;20538;51.528;9.942;2023-10-19T07:00:14;9.90;99.90
34279;DHT22;20538;51.528;9.942;2023-10-19T07:02:43;10.00;99.90
34279;DHT22;20538;51.528;9.942;2023-10-19T07:05:10;10.00;99.90
34279;DHT22;20538;51.528;9.942;2023-10-19T07:07:41;10.10;99.90
34279;DHT22;20538;51.528;9.942;2023-10-19T07:10:08;10.10;99.90
34279;DHT22;20538;51.528;9.942;2023-10-19T07:12:35;10.10;99.90
34279;DHT22;20538;51.528;9.942;2023-10-19T07:15:03;10.10;99.90
34279;DHT22;20538;51.528;9.942;2023-10-19T07:17:35;10.20;99.90
34279;DHT22;20538;51.528;9.942;2023-10-19T07:20:01;10.20;99.90
34279;DHT22;20538;51.528;9.942;2023-10-19T07:22:28;10.30;99.90
34279;DHT22;20538;51.528;9.942;2023-10-19T07:24:54;10.30;99.90
34279;DHT22;20538;51.528;9.942;2023-10-19T07:27:20;10.40;99.90
34279;DHT22;20538;51.528;9.942;2023-10-19T07:29:46;10.50;99.90
34279;DHT22;20538;51.528;9.942;2023-10-19T07:32:13;10.50;99.90
34279;DHT22;20538;51.528;9.942;2023-10-19T07:34:42;10.50;99.90
34279;DHT22;20538;51.528;9.942;2023-10-19T07:37:10;10.60;99.90
34279;DHT22;20538;51.528;9.942;2023-10-19T07:39:47;10.70;99.90
34279;DHT22;20538;51.528;9.942;2023-10-19T07:42:13;10.70;99.90
34279;DHT22;20538;51.528;9.942;2023-10-19T07:44:40;10.80;99.90
34279;DHT22;20538;51.528;9.942;2023-10-19T07:47:05;10.80;99.90
34279;DHT22;20538;51.528;9.942;2023-10-19T07:49:37;10.80;99.90
34279;DHT22;20538;51.528;9.942;2023-10-19T07:52:06;10.80;99.90
34279;DHT22;20538;51.528;9.942;2023-10-19T07:54:36;10.80;99.90
34279;DHT22;20538;51.528;9.942;2023-10-19T07:57:02;10.90;99.90
34279;DHT22;20538;51.528;9.942;2023-10-19T07:59:34;10.90;99.90
34279;DHT22;20538;51.528;9.942;2023-10-19T08:02:01;11.00;99.90
34279;DHT22;20538;51.528;9.942;2023-10-19T08:04:28;11.10;99.90
34279;DHT22;20538;51.528;9.942;2023-10-19T08:06:54;11.10;99.90
34279;DHT22;20538;51.528;9.942;2023-10-19T08:09:21;11.20;99.90
34279;DHT22;20538;51.528;9.942;2023-10-19T08:11:49;11.30;99.90
34279;DHT22;20538;51.528;9.942;2023-10-19T08:14:15;11.40;99.90
34279;DHT22;20538;51.528;9.942;2023-10-19T08:16:40;11.60;99.90
34279;DHT22;20538;51.528;9.942;2023-10-19T08:19:07;11.60;99.90
34279;DHT22;20538;51.528;9.942;2023-10-19T08:21:33;11.80;99.90
34279;DHT22;20538;51.528;9.942;2023-10-19T08:24:00;11.90;99.90
34279;DHT22;20538;51.528;9.942;2023-10-19T08:26:30;12.00;99.90
34279;DHT22;20538;51.528;9.942;2023-10-19T08:28:56;12.00;99.90
34279;DHT22;20538;51.528;9.942;2023-10-19T08:31:22;12.00;99.90
34279;DHT22;20538;51.528;9.942;2023-10-19T08:33:49;12.00;99.90
34279;DHT22;20538;51.528;9.942;2023-10-19T08:36:18;12.00;99.90
34279;DHT22;20538;51.528;9.942;2023-10-19T08:38:45;12.00;99.90
34279;DHT22;20538;51.528;9.942;2023-10-19T08:41:13;12.00;99.90
34279;DHT22;20538;51.528;9.942;2023-10-19T08:43:38;12.00;99.90
34279;DHT22;20538;51.528;9.942;2023-10-19T08:46:05;12.10;99.90
34279;DHT22;20538;51.528;9.942;2023-10-19T08:48:37;12.10;99.90
34279;DHT22;20538;51.528;9.942;2023-10-19T08:51:09;12.10;99.90
34279;DHT22;20538;51.528;9.942;2023-10-19T08:53:38;12.10;99.90
34279;DHT22;20538;51.528;9.942;2023-10-19T08:56:07;12.10;99.90
34279;DHT22;20538;51.528;9.942;2023-10-19T08:58:34;12.10;99.90
34279;DHT22;20538;51.528;9.942;2023-10-19T09:00:59;12.20;99.90
34279;DHT22;20538;51.528;9.942;2023-10-19T09:03:32;12.20;99.90
34279;DHT22;20538;51.528;9.942;2023-10-19T09:06:04;12.20;99.90
34279;DHT22;20538;51.528;9.942;2023-10-19T09:08:31;12.10;99.90
34279;DHT22;20538;51.528;9.942;2023-10-19T09:11:10;12.10;99.90
34279;DHT22;20538;51.528;9.942;2023-10-19T09:13:52;12.10;99.90
34279;DHT22;20538;51.528;9.942;2023-10-19T09:16:20;12.10;99.90
34279;DHT22;20538;51.528;9.942;2023-10-19T09:18:47;12.10;99.90
34279;DHT22;20538;51.528;9.942;2023-10-19T09:21:21;12.20;99.90
34279;DHT22;20538;51.528;9.942;2023-10-19T09:23:56;12.30;99.90
34279;DHT22;20538;51.528;9.942;2023-10-19T09:26:23;12.30;99.90
34279;DHT22;20538;51.528;9.942;2023-10-19T09:28:50;12.20;99.90
34279;DHT22;20538;51.528;9.942;2023-10-19T09:31:17;12.10;99.90
34279;DHT22;20538;51.528;9.942;2023-10-19T09:33:45;12.10;99.90
34279;DHT22;20538;51.528;9.942;2023-10-19T09:36:12;12.00;99.90
34279;DHT22;20538;51.528;9.942;2023-10-19T09:38:49;12.00;99.90
34279;DHT22;20538;51.528;9.942;2023-10-19T09:41:22;11.90;99.90
34279;DHT22;20538;51.528;9.942;2023-10-19T09:44:01;12.00;99.90
34279;DHT22;20538;51.528;9.942;2023-10-19T09:46:32;12.00;99.90
34279;DHT22;20538;51.528;9.942;2023-10-19T09:48:58;12.10;99.90
34279;DHT22;20538;51.528;9.942;2023-10-19T09:51:24;12.20;99.90
34279;DHT22;20538;51.528;9.942;2023-10-19T09:54:00;12.30;99.90
34279;DHT22;20538;51.528;9.942;2023-10-19T09:56:34;12.40;99.90
34279;DHT22;20538;51.528;9.942;2023-10-19T09:59:21;12.50;99.90
34279;DHT22;20538;51.528;9.942;2023-10-19T10:02:19;12.60;99.90
34279;DHT22;20538;51.528;9.942;2023-10-19T10:04:47;12.70;99.90
34279;DHT22;20538;51.528;9.942;2023-10-19T10:07:15;12.90;99.90
34279;DHT22;20538;51.528;9.942;2023-10-19T10:09:43;13.00;99.90
34279;DHT22;20538;51.528;9.942;2023-10-19T10:12:36;13.00;99.90
34279;DHT22;20538;51.528;9.942;2023-10-19T10:15:03;13.10;99.90
34279;DHT22;20538;51.528;9.942;2023-10-19T10:17:38;13.00;99.90
34279;DHT22;20538;51.528;9.942;2023-10-19T10:22:45;12.90;99.90
34279;DHT22;20538;51.528;9.942;2023-10-19T10:25:30;12.80;99.90
34279;DHT22;20538;51.528;9.942;2023-10-19T10:27:57;12.80;99.90
34279;DHT22;20538;51.528;9.942;2023-10-19T10:30:23;12.80;99.90
34279;DHT22;20538;51.528;9.942;2023-10-19T10:32:51;12.80;99.90
34279;DHT22;20538;51.528;9.942;2023-10-19T10:38:08;12.90;99.90
34279;DHT22;20538;51.528;9.942;2023-10-19T10:43:09;13.00;99.90
34279;DHT22;20538;51.528;9.942;2023-10-19T10:45:36;13.10;99.90
34279;DHT22;20538;51.528;9.942;2023-10-19T10:48:02;13.10;99.90
34279;DHT22;20538;51.528;9.942;2023-10-19T10:50:29;13.10;99.90
34279;DHT22;20538;51.528;9.942;2023-10-19T10:52:55;13.10;99.90
34279;DHT22;20538;51.528;9.942;2023-10-19T10:55:23;13.20;99.90
34279;DHT22;20538;51.528;9.942;2023-10-19T10:57:51;13.20;99.90
34279;DHT22;20538;51.528;9.942;2023-10-19T11:00:17;13.20;99.90
34279;DHT22;20538;51.528;9.942;2023-10-19T11:03:08;13.20;99.90
34279;DHT22;20538;51.528;9.942;2023-10-19T11:05:35;13.20;99.90
34279;DHT22;20538;51.528;9.942;2023-10-19T11:08:11;13.20;99.90
34279;DHT22;20538;51.528;9.942;2023-10-19T11:10:41;13.20;99.90
34279;DHT22;20538;51.528;9.942;2023-10-19T11:13:13;13.10;99.90
34279;DHT22;20538;51.528;9.942;2023-10-19T11:15:52;13.20;99.90
34279;DHT22;20538;51.528;9.942;2023-10-19T11:18:34;13.30;99.90
34279;DHT22;20538;51.528;9.942;2023-10-19T11:21:03;13.50;99.90
34279;DHT22;20538;51.528;9.942;2023-10-19T11:23:43;13.60;99.90
34279;DHT22;20538;51.528;9.942;2023-10-19T11:26:15;13.70;99.90
34279;DHT22;20538;51.528;9.942;2023-10-19T11:28:44;13.90;99.90
34279;DHT22;20538;51.528;9.942;2023-10-19T11:31:23;14.10;99.90
34279;DHT22;20538;51.528;9.942;2023-10-19T11:33:50;14.10;99.90
34279;DHT22;20538;51.528;9.942;2023-10-19T11:36:20;14.10;99.90
34279;DHT22;20538;51.528;9.942;2023-10-19T11:38:50;14.00;99.90
34279;DHT22;20538;51.528;9.942;2023-10-19T11:41:17;14.00;99.90
34279;DHT22;20538;51.528;9.942;2023-10-19T11:43:45;14.00;99.90
34279;DHT22;20538;51.528;9.942;2023-10-19T11:46:11;14.00;99.90
34279;DHT22;20538;51.528;9.942;2023-10-19T11:48:38;14.00;99.90
34279;DHT22;20538;51.528;9.942;2023-10-19T11:51:05;14.10;99.90
34279;DHT22;20538;51.528;9.942;2023-10-19T11:53:35;14.10;99.90
34279;DHT22;20538;51.528;9.942;2023-10-19T11:56:12;14.20;99.90
34279;DHT22;20538;51.528;9.942;2023-10-19T11:58:38;14.30;99.90
34279;DHT22;20538;51.528;9.942;2023-10-19T12:01:08;14.40;99.90
34279;DHT22;20538;51.528;9.942;2023-10-19T12:03:39;14.50;99.90
34279;DHT22;20538;51.528;9.942;2023-10-19T12:06:06;14.50;99.90
34279;DHT22;20538;51.528;9.942;2023-10-19T12:08:35;14.60;99.90
34279;DHT22;20538;51.528;9.942;2023-10-19T12:11:02;14.70;99.90
34279;DHT22;20538;51.528;9.942;2023-10-19T12:13:29;14.80;99.90
34279;DHT22;20538;51.528;9.942;2023-10-19T12:15:57;14.80;99.90
34279;DHT22;20538;51.528;9.942;2023-10-19T12:18:23;14.80;99.90
34279;DHT22;20538;51.528;9.942;2023-10-19T12:20:57;14.80;99.90
34279;DHT22;20538;51.528;9.942;2023-10-19T12:23:25;14.90;99.90
34279;DHT22;20538;51.528;9.942;2023-10-19T12:25:50;15.10;99.90
34279;DHT22;20538;51.528;9.942;2023-10-19T12:28:17;15.10;99.90
34279;DHT22;20538;51.528;9.942;2023-10-19T12:30:42;15.20;99.90
34279;DHT22;20538;51.528;9.942;2023-10-19T12:33:08;15.30;99.90
34279;DHT22;20538;51.528;9.942;2023-10-19T12:35:45;15.30;99.90
34279;DHT22;20538;51.528;9.942;2023-10-19T12:38:18;15.10;99.90
34279;DHT22;20538;51.528;9.942;2023-10-19T12:40:50;15.10;99.90
34279;DHT22;20538;51.528;9.942;2023-10-19T12:43:20;15.20;99.90
34279;DHT22;20538;51.528;9.942;2023-10-19T12:45:48;15.40;99.90
34279;DHT22;20538;51.528;9.942;2023-10-19T12:48:19;15.50;99.90
34279;DHT22;20538;51.528;9.942;2023-10-19T12:50:45;15.50;99.90
34279;DHT22;20538;51.528;9.942;2023-10-19T12:53:11;15.40;99.90
34279;DHT22;20538;51.528;9.942;2023-10-19T12:55:36;15.30;99.90
34279;DHT22;20538;51.528;9.942;2023-10-19T12:58:05;15.20;99.90
34279;DHT22;20538;51.528;9.942;2023-10-19T13:00:35;15.20;99.90
34279;DHT22;20538;51.528;9.942;2023-10-19T13:03:09;15.30;99.90
34279;DHT22;20538;51.528;9.942;2023-10-19T13:05:40;15.30;99.90
34279;DHT22;20538;51.528;9.942;2023-10-19T13:08:07;15.20;99.90
34279;DHT22;20538;51.528;9.942;2023-10-19T13:10:34;15.20;99.90
34279;DHT22;20538;51.528;9.942;2023-10-19T13:13:03;15.10;99.90
34279;DHT22;20538;51.528;9.942;2023-10-19T13:15:36;15.20;99.90
34279;DHT22;20538;51.528;9.942;2023-10-19T13:18:02;15.30;99.90
34279;DHT22;20538;51.528;9.942;2023-10-19T13:20:29;15.30;99.90
34279;DHT22;20538;51.528;9.942;2023-10-19T13:23:02;15.30;99.90
34279;DHT22;20538;51.528;9.942;2023-10-19T13:25:33;15.20;99.90
34279;DHT22;20538;51.528;9.942;2023-10-19T13:28:12;15.30;99.90
34279;DHT22;20538;51.528;9.942;2023-10-19T13:30:39;15.20;99.90
34279;DHT22;20538;51.528;9.942;2023-10-19T13:33:06;15.10;99.90
34279;DHT22;20538;51.528;9.942;2023-10-19T13:35:39;14.90;99.90
34279;DHT22;20538;51.528;9.942;2023-10-19T13:38:06;14.80;99.90
34279;DHT22;20538;51.528;9.942;2023-10-19T13:40:33;14.80;99.90
34279;DHT22;20538;51.528;9.942;2023-10-19T13:42:59;14.70;99.90
34279;DHT22;20538;51.528;9.942;2023-10-19T13:45:26;14.60;99.90
34279;DHT22;20538;51.528;9.942;2023-10-19T13:47:52;14.60;99.90
34279;DHT22;20538;51.528;9.942;2023-10-19T13:50:21;14.50;99.90
34279;DHT22;20538;51.528;9.942;2023-10-19T13:52:49;14.50;99.90
34279;DHT22;20538;51.528;9.942;2023-10-19T13:55:15;14.60;99.90
34279;DHT22;20538;51.528;9.942;2023-10-19T13:57:44;14.60;99.90
34279;DHT22;20538;51.528;9.942;2023-10-19T14:00:12;14.70;99.90
34279;DHT22;20538;51.528;9.942;2023-10-19T14:02:45;14.70;99.90
34279;DHT22;20538;51.528;9.942;2023-10-19T14:05:12;14.80;99.90
34279;DHT22;20538;51.528;9.942;2023-10-19T14:07:37;14.80;99.90
34279;DHT22;20538;51.528;9.942;2023-10-19T14:10:06;14.90;99.90
34279;DHT22;20538;51.528;9.942;2023-10-19T14:12:33;14.90;99.90
34279;DHT22;20538;51.528;9.942;2023-10-19T14:14:58;15.00;99.90
34279;DHT22;20538;51.528;9.942;2023-10-19T14:17:24;15.00;99.90
34279;DHT22;20538;51.528;9.942;2023-10-19T14:19:50;15.00;99.90
34279;DHT22;20538;51.528;9.942;2023-10-19T14:22:16;15.00;99.90
34279;DHT22;20538;51.528;9.942;2023-10-19T14:24:43;15.10;99.90
34279;DHT22;20538;51.528;9.942;2023-10-19T14:27:13;15.10;99.90
34279;DHT22;20538;51.528;9.942;2023-10-19T14:29:39;15.10;99.90
34279;DHT22;20538;51.528;9.942;2023-10-19T14:32:04;15.10;99.90
34279;DHT22;20538;51.528;9.942;2023-10-19T14:34:30;15.10;99.90
34279;DHT22;20538;51.528;9.942;2023-10-19T14:36:56;15.00;99.90
34279;DHT22;20538;51.528;9.942;2023-10-19T14:39:21;15.00;99.90
34279;DHT22;20538;51.528;9.942;2023-10-19T14:41:49;14.90;99.90
34279;DHT22;20538;51.528;9.942;2023-10-19T14:44:15;14.90;99.90
34279;DHT22;20538;51.528;9.942;2023-10-19T14:46:41;14.80;99.90
34279;DHT22;20538;51.528;9.942;2023-10-19T14:49:06;14.70;99.90
34279;DHT22;20538;51.528;9.942;2023-10-19T14:51:32;14.70;99.90
34279;DHT22;20538;51.528;9.942;2023-10-19T14:53:58;14.70;99.90
34279;DHT22;20538;51.528;9.942;2023-10-19T14:56:23;14.60;99.90
34279;DHT22;20538;51.528;9.942;2023-10-19T14:58:49;14.60;99.90
34279;DHT22;20538;51.528;9.942;2023-10-19T15:01:22;14.60;99.90
34279;DHT22;20538;51.528;9.942;2023-10-19T15:03:47;14.60;99.90
34279;DHT22;20538;51.528;9.942;2023-10-19T15:06:14;14.50;99.90
34279;DHT22;20538;51.528;9.942;2023-10-19T15:08:39;14.50;99.90
34279;DHT22;20538;51.528;9.942;2023-10-19T15:11:05;14.50;99.90
34279;DHT22;20538;51.528;9.942;2023-10-19T15:13:31;14.50;99.90
34279;DHT22;20538;51.528;9.942;2023-10-19T15:15:56;14.50;99.90
34279;DHT22;20538;51.528;9.942;2023-10-19T15:18:22;14.50;99.90
34279;DHT22;20538;51.528;9.942;2023-10-19T15:20:47;14.40;99.90
34279;DHT22;20538;51.528;9.942;2023-10-19T15:23:13;14.40;99.90
34279;DHT22;20538;51.528;9.942;2023-10-19T15:25:38;14.40;99.90
34279;DHT22;20538;51.528;9.942;2023-10-19T15:28:07;14.40;99.90
34279;DHT22;20538;51.528;9.942;2023-10-19T15:30:33;14.30;99.90
34279;DHT22;20538;51.528;9.942;2023-10-19T15:32:59;14.30;99.90
34279;DHT22;20538;51.528;9.942;2023-10-19T15:35:25;14.30;99.90
34279;DHT22;20538;51.528;9.942;2023-10-19T15:37:53;14.20;99.90
34279;DHT22;20538;51.528;9.942;2023-10-19T15:40:20;14.20;99.90
34279;DHT22;20538;51.528;9.942;2023-10-19T15:42:45;14.20;99.90
34279;DHT22;20538;51.528;9.942;2023-10-19T15:45:13;14.20;99.90
34279;DHT22;20538;51.528;9.942;2023-10-19T15:47:39;14.20;99.90
34279;DHT22;20538;51.528;9.942;2023-10-19T15:50:06;14.10;99.90
34279;DHT22;20538;51.528;9.942;2023-10-19T15:52:34;14.10;99.90
34279;DHT22;20538;51.528;9.942;2023-10-19T15:55:01;14.10;99.90
34279;DHT22;20538;51.528;9.942;2023-10-19T15:57:26;14.10;99.90
34279;DHT22;20538;51.528;9.942;2023-10-19T15:59:56;14.10;99.90
34279;DHT22;20538;51.528;9.942;2023-10-19T16:02:25;14.10;99.90